Tomofujimaru — JL6701 — position and weather

sailwx.info

Track history (hours):
 
Tides and Currents Weather Stations Pressure Air Temp Water Temp Dewpoint Dewpoint Depression Visibility Wind Speed Wind Dir Waves Ship Positions

Tomofujimaru

Last reported at 2017-Dec-08 04:43 UTC. Time now 2017-Dec-13 22:38 UTC.
Position N 34°27' E 130°54'.

Length 104 m; draft 6.3 m.

Type: Tanker. MMSI: 431501737.

Date/timePositionNaut miles runAvg speedWind from/ knotsBaromVisibWave heightAir tempDewpointWater temp
2017-Dec-08 04:43N 34°27' E 130°54'311.9
2017-Dec-08 04:30N 34°25' E 130°51'510.5
2017-Dec-08 04:00N 34°21' E 130°47'511.0
2017-Dec-08 03:30N 34°16' E 130°48'511.0
2017-Dec-08 03:00N 34°11' E 130°49'510.8
2017-Dec-08 02:30N 34°05' E 130°51'611.2
2017-Dec-08 02:00N 33°60' E 130°53'611.0
2017-Dec-08 01:30N 33°55' E 130°54'5 9.5
2017-Dec-08 01:00N 33°58' E 130°58'5 9.2
2017-Dec-08 00:30N 33°57' E 131°03'713.0
2017-Dec-08 00:00N 33°53' E 131°10'612.8
2017-Dec-07 23:30N 33°51' E 131°17'713.3
2017-Dec-07 23:00N 33°49' E 131°25'612.9
2017-Dec-07 22:30N 33°48' E 131°33'612.7
2017-Dec-07 22:00N 33°47' E 131°40'612.6
2017-Dec-07 21:30N 33°45' E 131°48'612.4
2017-Dec-07 21:00N 33°44' E 131°55'1512.9
2017-Dec-07 19:49N 33°43' E 132°13'614.2
2017-Dec-07 19:25N 33°45' E 132°20'714.3
2017-Dec-07 18:57N 33°47' E 132°27'614.2
2017-Dec-07 18:30N 33°51' E 132°33'714.2
2017-Dec-07 18:01N 33°56' E 132°39'714.1
2017-Dec-07 17:31N 34°01' E 132°45'2 0.1
2017-Dec-06 21:49N 34°02' E 132°47'413.1
2017-Dec-06 21:30N 33°59' E 132°44'611.9
2017-Dec-06 21:01N 33°55' E 132°39'  
2017-Dec-04 10:30N 33°47' E 131°42'713.4
2017-Dec-04 10:00N 33°49' E 131°34'713.2
2017-Dec-04 09:30N 33°50' E 131°26'713.1
2017-Dec-04 09:01N 33°51' E 131°19'612.9
2017-Dec-04 08:30N 33°52' E 131°11'713.5
2017-Dec-04 08:01N 33°56' E 131°04'611.9
2017-Dec-04 07:31N 33°57' E 130°57'5 9.2
2017-Dec-04 07:01N 33°56' E 130°52'612.7
2017-Dec-04 06:31N 34°02' E 130°52'713.7
2017-Dec-04 06:00N 34°09' E 130°50'713.5
2017-Dec-04 05:30N 34°16' E 130°49'612.8
2017-Dec-04 05:00N 34°22' E 130°47'612.1
2017-Dec-04 04:29N 34°26' E 130°53'  
2017-Dec-01 05:47N 34°26' E 130°54'311.5
2017-Dec-01 05:30N 34°25' E 130°51'510.0
2017-Dec-01 05:00N 34°21' E 130°47'611.8
2017-Dec-01 04:30N 34°15' E 130°49'611.8
2017-Dec-01 04:00N 34°09' E 130°50'611.6
2017-Dec-01 03:30N 34°03' E 130°51'611.4
2017-Dec-01 03:00N 33°58' E 130°52'4 7.4
2017-Dec-01 02:30N 33°55' E 130°56'510.5
2017-Dec-01 02:00N 33°59' E 131°01'612.0
2017-Dec-01 01:30N 33°55' E 131°07'612.0
2017-Dec-01 01:00N 33°52' E 131°13'611.9
2017-Dec-01 00:30N 33°51' E 131°20'612.1
2017-Dec-01 00:00N 33°50' E 131°27'612.1
2017-Nov-30 23:30N 33°49' E 131°34'612.0
2017-Nov-30 23:00N 33°48' E 131°41'612.3
2017-Nov-30 22:30N 33°47' E 131°49'612.2
2017-Nov-30 22:00N 33°45' E 131°56'612.2
2017-Nov-30 21:30N 33°46' E 132°03'612.3
2017-Nov-30 20:59N 33°49' E 132°10'611.7
2017-Nov-30 20:30N 33°50' E 132°16'1312.0
2017-Nov-30 19:23N 33°53' E 132°32'512.2
2017-Nov-30 18:56N 33°55' E 132°38'512.0
2017-Nov-30 18:30N 33°58' E 132°43'4 0.1
2017-Nov-29 01:14N 34°01' E 132°46'312.6
2017-Nov-29 01:00N 33°59' E 132°44'612.8
2017-Nov-29 00:30N 33°54' E 132°38'613.0
2017-Nov-29 00:00N 33°52' E 132°31'713.2
2017-Nov-28 23:28N 33°49' E 132°23'612.6
2017-Nov-28 22:59N 33°50' E 132°16'1113.1
2017-Nov-28 22:09N 33°45' E 132°04'613.9
2017-Nov-28 21:42N 33°45' E 131°57'313.9
2017-Nov-28 21:30N 33°45' E 131°53'714.1
2017-Nov-28 21:00N 33°47' E 131°45'714.1
2017-Nov-28 20:30N 33°49' E 131°37'713.9
2017-Nov-28 20:00N 33°51' E 131°29'713.6
2017-Nov-28 19:31N 33°50' E 131°21'713.4
2017-Nov-28 19:00N 33°51' E 131°13'713.1
2017-Nov-28 18:30N 33°55' E 131°06'612.8
2017-Nov-28 18:00N 33°59' E 130°60'612.9
2017-Nov-28 17:31N 33°54' E 130°54'612.7
2017-Nov-28 17:00N 34°01' E 130°52'713.9
2017-Nov-28 16:30N 34°07' E 130°50'714.0
2017-Nov-28 16:00N 34°14' E 130°49'  
Track history (hours):
 
Tides and Currents Weather Stations Pressure Air Temp Water Temp Dewpoint Dewpoint Depression Visibility Wind Speed Wind Dir Waves Ship Positions

Tomofujimaru

Last reported at 2017-Dec-08 04:43 UTC. Time now 2017-Dec-13 22:38 UTC.
Position N 34°27' E 130°54'.

Length 104 m; draft 6.3 m.

Type: Tanker. MMSI: 431501737.

Date/timePositionNaut miles runAvg speedWind from/ knotsBaromVisibWave heightAir tempDewpointWater temp
2017-Dec-08 04:43N 34°27' E 130°54'311.9
2017-Dec-08 04:30N 34°25' E 130°51'510.5
2017-Dec-08 04:00N 34°21' E 130°47'511.0
2017-Dec-08 03:30N 34°16' E 130°48'511.0
2017-Dec-08 03:00N 34°11' E 130°49'510.8
2017-Dec-08 02:30N 34°05' E 130°51'611.2
2017-Dec-08 02:00N 33°60' E 130°53'611.0
2017-Dec-08 01:30N 33°55' E 130°54'5 9.5
2017-Dec-08 01:00N 33°58' E 130°58'5 9.2
2017-Dec-08 00:30N 33°57' E 131°03'713.0
2017-Dec-08 00:00N 33°53' E 131°10'612.8
2017-Dec-07 23:30N 33°51' E 131°17'713.3
2017-Dec-07 23:00N 33°49' E 131°25'612.9
2017-Dec-07 22:30N 33°48' E 131°33'612.7
2017-Dec-07 22:00N 33°47' E 131°40'612.6
2017-Dec-07 21:30N 33°45' E 131°48'612.4
2017-Dec-07 21:00N 33°44' E 131°55'1512.9
2017-Dec-07 19:49N 33°43' E 132°13'614.2
2017-Dec-07 19:25N 33°45' E 132°20'714.3
2017-Dec-07 18:57N 33°47' E 132°27'614.2
2017-Dec-07 18:30N 33°51' E 132°33'714.2
2017-Dec-07 18:01N 33°56' E 132°39'714.1
2017-Dec-07 17:31N 34°01' E 132°45'2 0.1
2017-Dec-06 21:49N 34°02' E 132°47'413.1
2017-Dec-06 21:30N 33°59' E 132°44'611.9
2017-Dec-06 21:01N 33°55' E 132°39'  
2017-Dec-04 10:30N 33°47' E 131°42'713.4
2017-Dec-04 10:00N 33°49' E 131°34'713.2
2017-Dec-04 09:30N 33°50' E 131°26'713.1
2017-Dec-04 09:01N 33°51' E 131°19'612.9
2017-Dec-04 08:30N 33°52' E 131°11'713.5
2017-Dec-04 08:01N 33°56' E 131°04'611.9
2017-Dec-04 07:31N 33°57' E 130°57'5 9.2
2017-Dec-04 07:01N 33°56' E 130°52'612.7
2017-Dec-04 06:31N 34°02' E 130°52'713.7
2017-Dec-04 06:00N 34°09' E 130°50'713.5
2017-Dec-04 05:30N 34°16' E 130°49'612.8
2017-Dec-04 05:00N 34°22' E 130°47'612.1
2017-Dec-04 04:29N 34°26' E 130°53'  
2017-Dec-01 05:47N 34°26' E 130°54'311.5
2017-Dec-01 05:30N 34°25' E 130°51'510.0
2017-Dec-01 05:00N 34°21' E 130°47'611.8
2017-Dec-01 04:30N 34°15' E 130°49'611.8
2017-Dec-01 04:00N 34°09' E 130°50'611.6
2017-Dec-01 03:30N 34°03' E 130°51'611.4
2017-Dec-01 03:00N 33°58' E 130°52'4 7.4
2017-Dec-01 02:30N 33°55' E 130°56'510.5
2017-Dec-01 02:00N 33°59' E 131°01'612.0
2017-Dec-01 01:30N 33°55' E 131°07'612.0
2017-Dec-01 01:00N 33°52' E 131°13'611.9
2017-Dec-01 00:30N 33°51' E 131°20'612.1
2017-Dec-01 00:00N 33°50' E 131°27'612.1
2017-Nov-30 23:30N 33°49' E 131°34'612.0
2017-Nov-30 23:00N 33°48' E 131°41'612.3
2017-Nov-30 22:30N 33°47' E 131°49'612.2
2017-Nov-30 22:00N 33°45' E 131°56'612.2
2017-Nov-30 21:30N 33°46' E 132°03'612.3
2017-Nov-30 20:59N 33°49' E 132°10'611.7
2017-Nov-30 20:30N 33°50' E 132°16'1312.0
2017-Nov-30 19:23N 33°53' E 132°32'512.2
2017-Nov-30 18:56N 33°55' E 132°38'512.0
2017-Nov-30 18:30N 33°58' E 132°43'4 0.1
2017-Nov-29 01:14N 34°01' E 132°46'312.6
2017-Nov-29 01:00N 33°59' E 132°44'612.8
2017-Nov-29 00:30N 33°54' E 132°38'613.0
2017-Nov-29 00:00N 33°52' E 132°31'713.2
2017-Nov-28 23:28N 33°49' E 132°23'612.6
2017-Nov-28 22:59N 33°50' E 132°16'1113.1
2017-Nov-28 22:09N 33°45' E 132°04'613.9
2017-Nov-28 21:42N 33°45' E 131°57'313.9
2017-Nov-28 21:30N 33°45' E 131°53'714.1
2017-Nov-28 21:00N 33°47' E 131°45'714.1
2017-Nov-28 20:30N 33°49' E 131°37'713.9
2017-Nov-28 20:00N 33°51' E 131°29'713.6
2017-Nov-28 19:31N 33°50' E 131°21'713.4
2017-Nov-28 19:00N 33°51' E 131°13'713.1
2017-Nov-28 18:30N 33°55' E 131°06'612.8
2017-Nov-28 18:00N 33°59' E 130°60'612.9
2017-Nov-28 17:31N 33°54' E 130°54'612.7
2017-Nov-28 17:00N 34°01' E 130°52'713.9
2017-Nov-28 16:30N 34°07' E 130°50'714.0
2017-Nov-28 16:00N 34°14' E 130°49'  

Dump ship's entire track history